createdAt,value
2017-12-05T00:01:23.615Z,95604.50
2017-12-05T00:03:52.507Z,95606.98
2017-12-05T00:06:19.896Z,95606.95
2017-12-05T00:08:47.307Z,95610.91
2017-12-05T00:11:14.675Z,95619.42
2017-12-05T00:13:42.144Z,95612.41
2017-12-05T00:16:10.664Z,95606.55
2017-12-05T00:18:38.017Z,95607.67
2017-12-05T00:21:05.361Z,95616.20
2017-12-05T00:23:32.733Z,95617.91
2017-12-05T00:26:00.333Z,95622.60
2017-12-05T00:28:27.730Z,95620.36
2017-12-05T00:30:55.068Z,95624.89
2017-12-05T00:33:22.600Z,95624.86
2017-12-05T00:35:50.074Z,95622.97
2017-12-05T00:38:17.490Z,95626.77
2017-12-05T00:40:44.904Z,95625.45
2017-12-05T00:43:12.476Z,95622.59
2017-12-05T00:45:39.919Z,95623.12
2017-12-05T00:48:07.311Z,95624.08
2017-12-05T00:50:34.710Z,95620.84
2017-12-05T00:53:02.075Z,95626.53
2017-12-05T00:55:29.795Z,95623.30
2017-12-05T00:57:57.169Z,95618.97
2017-12-05T01:00:24.967Z,95629.73
2017-12-05T01:02:52.390Z,95620.06
2017-12-05T01:05:19.762Z,95627.98
2017-12-05T01:07:48.706Z,95626.47
2017-12-05T01:10:16.179Z,95624.01
2017-12-05T01:12:43.630Z,95618.34
2017-12-05T01:15:17.337Z,95621.59
2017-12-05T01:17:44.823Z,95621.77
2017-12-05T01:20:12.359Z,95620.66
2017-12-05T01:22:39.732Z,95623.31
2017-12-05T01:25:07.092Z,95613.84
2017-12-05T01:27:34.669Z,95609.47
2017-12-05T01:30:02.156Z,95607.16
2017-12-05T01:32:29.815Z,95608.72
2017-12-05T01:34:57.308Z,95606.77
2017-12-05T01:37:24.740Z,95610.36
2017-12-05T01:39:52.098Z,95604.34
2017-12-05T01:42:19.951Z,95604.15
2017-12-05T01:44:47.522Z,95593.55
2017-12-05T01:47:14.971Z,95592.61
2017-12-05T01:49:42.670Z,95588.98
2017-12-05T01:52:10.376Z,95592.41
2017-12-05T01:54:37.765Z,95587.66
2017-12-05T01:57:05.133Z,95582.77
2017-12-05T01:59:32.567Z,95576.88
2017-12-05T02:02:00.000Z,95574.62
2017-12-05T02:04:27.667Z,95574.81
2017-12-05T02:06:55.647Z,95577.78
2017-12-05T02:09:23.047Z,95573.03
2017-12-05T02:11:50.513Z,95577.13
2017-12-05T02:14:17.888Z,95572.97
2017-12-05T02:16:45.271Z,95563.92
2017-12-05T02:19:13.903Z,95562.91
2017-12-05T02:21:41.394Z,95556.64
2017-12-05T02:24:08.799Z,95565.70
2017-12-05T02:26:36.590Z,95570.59
2017-12-05T02:29:04.000Z,95563.83
2017-12-05T02:31:33.063Z,95573.44
2017-12-05T02:34:00.438Z,95578.63
2017-12-05T02:36:27.879Z,95584.08
2017-12-05T02:38:56.931Z,95584.97
2017-12-05T02:41:24.396Z,95582.36
2017-12-05T02:43:51.742Z,95588.44
2017-12-05T02:46:19.162Z,95589.63
2017-12-05T02:48:48.413Z,95575.08
2017-12-05T02:51:15.868Z,95582.77
2017-12-05T02:53:43.222Z,95583.36
2017-12-05T02:56:12.338Z,95585.27
2017-12-05T02:58:39.806Z,95590.45
2017-12-05T03:01:07.246Z,95583.77
2017-12-05T03:03:36.052Z,95587.93
2017-12-05T03:06:03.430Z,95592.48
2017-12-05T03:08:30.860Z,95586.13
2017-12-05T03:10:58.283Z,95590.30
2017-12-05T03:13:25.766Z,95589.33
2017-12-05T03:15:53.140Z,95593.48
2017-12-05T03:18:21.948Z,95593.48
2017-12-05T03:23:23.273Z,95589.19
2017-12-05T03:25:50.667Z,95583.30
2017-12-05T03:28:18.584Z,95585.97
2017-12-05T03:30:45.997Z,95582.34
2017-12-05T03:33:13.365Z,95594.83
2017-12-05T03:35:40.915Z,95595.56
2017-12-05T03:38:08.352Z,95608.25
2017-12-05T03:40:35.968Z,95614.49
2017-12-05T03:43:03.503Z,95612.05
2017-12-05T03:45:30.853Z,95609.78
2017-12-05T03:47:58.294Z,95610.56
2017-12-05T03:50:26.584Z,95608.86
2017-12-05T03:52:54.014Z,95613.04
2017-12-05T03:55:21.385Z,95625.70
2017-12-05T03:57:49.639Z,95614.20
2017-12-05T04:00:17.076Z,95616.30
2017-12-05T04:02:45.055Z,95628.81
2017-12-05T04:05:13.000Z,95640.39
2017-12-05T04:07:40.705Z,95638.88
2017-12-05T04:10:08.391Z,95641.77
2017-12-05T04:12:35.799Z,95641.82
2017-12-05T04:15:03.278Z,95643.75
2017-12-05T04:17:31.736Z,95641.87
2017-12-05T04:19:59.187Z,95641.28
2017-12-05T04:22:26.728Z,95642.64
2017-12-05T04:24:54.221Z,95636.22
2017-12-05T04:27:21.603Z,95627.89
2017-12-05T04:29:49.054Z,95632.66
2017-12-05T04:32:16.415Z,95633.59
2017-12-05T04:34:43.784Z,95636.27
2017-12-05T04:37:11.302Z,95627.75
2017-12-05T04:39:38.954Z,95624.52
2017-12-05T04:42:06.429Z,95630.22
2017-12-05T04:44:33.811Z,95633.62
2017-12-05T04:47:01.174Z,95636.66
2017-12-05T04:49:28.681Z,95635.91
2017-12-05T04:51:56.101Z,95633.83
2017-12-05T04:54:23.768Z,95638.00
2017-12-05T04:56:51.273Z,95629.27
2017-12-05T04:59:18.849Z,95637.27
2017-12-05T05:01:46.291Z,95636.89
2017-12-05T05:04:13.754Z,95633.48
2017-12-05T05:06:41.179Z,95638.02
2017-12-05T05:09:08.614Z,95638.58
2017-12-05T05:11:36.136Z,95641.64
2017-12-05T05:14:03.607Z,95640.87
2017-12-05T05:16:30.990Z,95630.83
2017-12-05T05:18:58.516Z,95624.00
2017-12-05T05:21:26.178Z,95626.45
2017-12-05T05:23:53.990Z,95630.27
2017-12-05T05:26:21.440Z,95628.94
2017-12-05T05:28:49.059Z,95633.64
2017-12-05T05:31:16.444Z,95629.87
2017-12-05T05:33:44.087Z,95633.26
2017-12-05T05:36:11.494Z,95637.45
2017-12-05T05:38:39.268Z,95634.97
2017-12-05T05:41:10.217Z,95645.59
2017-12-05T05:43:37.622Z,95639.52
2017-12-05T05:46:06.102Z,95644.45
2017-12-05T05:48:33.458Z,95639.89
2017-12-05T05:51:00.944Z,95647.84
2017-12-05T05:53:28.334Z,95653.72
2017-12-05T05:55:55.799Z,95643.67
2017-12-05T05:58:23.193Z,95641.02
2017-12-05T06:00:50.631Z,95661.11
2017-12-05T06:03:18.059Z,95662.05
2017-12-05T06:05:45.494Z,95661.67
2017-12-05T06:08:12.874Z,95655.59
2017-12-05T06:10:40.261Z,95658.63
2017-12-05T06:13:07.727Z,95653.89
2017-12-05T06:15:35.171Z,95655.78
2017-12-05T06:18:02.660Z,95658.83
2017-12-05T06:20:30.241Z,95648.00
2017-12-05T06:22:57.660Z,95651.98
2017-12-05T06:25:25.178Z,95666.03
2017-12-05T06:27:52.655Z,95670.58
2017-12-05T06:30:20.091Z,95673.42
2017-12-05T06:32:47.556Z,95683.67
2017-12-05T06:35:15.141Z,95689.32
2017-12-05T06:37:42.579Z,95690.27
2017-12-05T06:40:10.279Z,95692.54
2017-12-05T06:42:37.726Z,95694.63
2017-12-05T06:45:05.158Z,95684.19
2017-12-05T06:47:32.550Z,95681.51
2017-12-05T06:49:59.978Z,95696.70
2017-12-05T06:52:27.364Z,95685.49
2017-12-05T06:54:55.688Z,95694.37
2017-12-05T06:57:23.156Z,95701.22
2017-12-05T06:59:51.240Z,95701.81
2017-12-05T07:02:18.717Z,95703.34
2017-12-05T07:04:46.143Z,95700.73
2017-12-05T07:07:13.598Z,95701.06
2017-12-05T07:09:41.138Z,95694.80
2017-12-05T07:12:08.719Z,95698.03
2017-12-05T07:14:36.290Z,95707.16
2017-12-05T07:17:03.856Z,95711.34
2017-12-05T07:19:34.193Z,95714.01
2017-12-05T07:22:01.704Z,95719.30
2017-12-05T07:24:30.528Z,95727.27
2017-12-05T07:26:58.704Z,95719.31
2017-12-05T07:29:27.124Z,95716.30
2017-12-05T07:31:54.915Z,95719.88
2017-12-05T07:34:22.704Z,95714.77
2017-12-05T07:36:50.422Z,95706.22
2017-12-05T07:39:18.707Z,95716.27
2017-12-05T07:41:50.333Z,95708.14
2017-12-05T07:44:21.275Z,95712.28
2017-12-05T07:46:53.567Z,95708.30
2017-12-05T07:49:21.226Z,95695.80
2017-12-05T07:51:50.919Z,95695.05
2017-12-05T07:54:20.189Z,95707.38
2017-12-05T07:56:48.613Z,95688.61
2017-12-05T07:59:18.317Z,95693.91
2017-12-05T08:01:46.189Z,95688.98
2017-12-05T08:04:14.812Z,95695.79
2017-12-05T08:06:51.505Z,95698.84
2017-12-05T08:09:19.384Z,95692.33
2017-12-05T08:11:52.556Z,95685.56
2017-12-05T08:14:25.167Z,95688.95
2017-12-05T08:16:54.194Z,95689.70
2017-12-05T08:21:56.455Z,95694.05
2017-12-05T08:24:24.313Z,95693.88
2017-12-05T08:26:52.419Z,95702.95
2017-12-05T08:29:25.430Z,95695.22
2017-12-05T08:31:59.317Z,95703.56
2017-12-05T08:34:28.251Z,95721.39
2017-12-05T08:36:58.196Z,95716.45
2017-12-05T08:39:26.453Z,95717.22
2017-12-05T08:41:58.538Z,95720.42
2017-12-05T08:44:26.751Z,95723.29
2017-12-05T08:46:55.140Z,95714.73
2017-12-05T08:49:23.018Z,95709.05
2017-12-05T08:51:54.244Z,95715.27
2017-12-05T08:54:23.520Z,95720.27
2017-12-05T08:56:57.306Z,95722.12
2017-12-05T08:59:26.593Z,95718.73
2017-12-05T09:01:56.829Z,95719.11
2017-12-05T09:04:31.026Z,95719.05
2017-12-05T09:09:53.840Z,95726.28
2017-12-05T09:12:21.674Z,95714.94
2017-12-05T09:14:53.765Z,95721.39
2017-12-05T09:17:21.349Z,95724.36
2017-12-05T09:19:52.570Z,95732.72
2017-12-05T09:22:23.297Z,95737.83
2017-12-05T09:24:54.449Z,95735.55
2017-12-05T09:35:19.306Z,95715.66
2017-12-05T09:37:47.206Z,95716.16
2017-12-05T09:40:14.703Z,95715.48
2017-12-05T09:42:42.437Z,95717.52
2017-12-05T09:45:11.058Z,95721.83
2017-12-05T09:47:44.141Z,95728.05
2017-12-05T09:50:18.883Z,95719.89
2017-12-05T09:52:46.628Z,95713.62
2017-12-05T09:55:15.692Z,95714.66
2017-12-05T09:57:44.890Z,95712.56
2017-12-05T10:00:14.708Z,95708.33
2017-12-05T10:02:42.325Z,95716.06
2017-12-05T10:05:11.915Z,95722.06
2017-12-05T10:07:39.811Z,95725.70
2017-12-05T10:10:07.595Z,95726.05
2017-12-05T10:12:38.371Z,95719.84
2017-12-05T10:15:07.381Z,95721.69
2017-12-05T10:17:41.344Z,95717.56
2017-12-05T10:20:11.914Z,95724.19
2017-12-05T10:22:40.276Z,95715.47
2017-12-05T10:25:08.757Z,95720.20
2017-12-05T10:27:45.837Z,95709.93
2017-12-05T10:30:20.017Z,95713.33
2017-12-05T10:32:49.860Z,95708.88
2017-12-05T10:35:17.481Z,95713.47
2017-12-05T10:37:45.350Z,95715.53
2017-12-05T10:40:18.016Z,95715.09
2017-12-05T10:42:46.028Z,95706.13
2017-12-05T10:45:13.568Z,95707.08
2017-12-05T10:47:41.122Z,95698.20
2017-12-05T10:50:09.122Z,95702.95
2017-12-05T10:52:37.169Z,95698.75
2017-12-05T10:55:11.186Z,95700.42
2017-12-05T10:57:40.995Z,95703.91
2017-12-05T11:00:08.567Z,95711.88
2017-12-05T11:02:40.761Z,95702.09
2017-12-05T11:05:09.156Z,95699.87
2017-12-05T11:07:36.854Z,95686.53
2017-12-05T11:10:04.333Z,95698.92
2017-12-05T11:12:32.205Z,95697.55
2017-12-05T11:14:59.937Z,95697.47
2017-12-05T11:17:30.120Z,95695.48
2017-12-05T11:19:58.923Z,95695.11
2017-12-05T11:22:29.503Z,95697.80
2017-12-05T11:25:04.444Z,95700.97
2017-12-05T11:27:35.266Z,95702.31
2017-12-05T11:30:03.858Z,95702.42
2017-12-05T11:32:32.273Z,95700.70
2017-12-05T11:35:01.144Z,95689.51
2017-12-05T11:37:31.870Z,95691.05
2017-12-05T11:40:01.635Z,95691.79
2017-12-05T11:42:31.312Z,95685.84
2017-12-05T11:45:01.175Z,95696.94
2017-12-05T11:47:30.096Z,95703.25
2017-12-05T11:49:58.443Z,95692.56
2017-12-05T11:52:26.578Z,95692.10
2017-12-05T11:54:55.053Z,95696.31
2017-12-05T11:57:23.912Z,95688.52
2017-12-05T11:59:53.698Z,95707.17
2017-12-05T12:02:22.600Z,95698.68
2017-12-05T12:04:50.356Z,95697.91
2017-12-05T12:07:18.058Z,95697.56
2017-12-05T12:09:45.588Z,95709.84
2017-12-05T12:12:13.016Z,95705.33
2017-12-05T12:14:41.534Z,95704.90
2017-12-05T12:17:09.212Z,95709.81
2017-12-05T12:19:38.802Z,95710.64
2017-12-05T12:22:06.628Z,95712.00
2017-12-05T12:24:34.192Z,95717.63
2017-12-05T12:27:01.826Z,95714.77
2017-12-05T12:29:29.951Z,95715.39
2017-12-05T12:31:57.679Z,95729.97
2017-12-05T12:34:27.408Z,95721.59
2017-12-05T12:36:55.372Z,95715.61
2017-12-05T12:39:23.188Z,95718.55
2017-12-05T12:41:51.044Z,95727.78
2017-12-05T12:44:19.199Z,95724.18
2017-12-05T12:46:47.325Z,95727.64
2017-12-05T12:49:14.841Z,95729.19
2017-12-05T12:51:42.780Z,95728.58
2017-12-05T12:54:10.361Z,95733.27
2017-12-05T12:56:38.648Z,95731.55
2017-12-05T12:59:07.721Z,95729.75
2017-12-05T13:04:10.780Z,95720.48
2017-12-05T13:06:38.365Z,95728.34
2017-12-05T13:09:09.041Z,95731.72
2017-12-05T13:11:36.576Z,95726.73
2017-12-05T13:14:04.201Z,95740.61
2017-12-05T13:16:32.058Z,95731.55
2017-12-05T13:18:59.593Z,95743.17
2017-12-05T13:21:27.329Z,95739.88
2017-12-05T13:23:55.016Z,95743.17
2017-12-05T13:26:22.731Z,95738.55
2017-12-05T13:28:50.182Z,95744.03
2017-12-05T13:31:17.677Z,95746.09
2017-12-05T13:33:45.227Z,95739.90
2017-12-05T13:36:12.776Z,95746.34
2017-12-05T13:38:40.260Z,95754.48
2017-12-05T13:41:08.319Z,95762.64
2017-12-05T13:43:36.078Z,95774.77
2017-12-05T13:46:03.615Z,95763.41
2017-12-05T13:48:31.338Z,95776.69
2017-12-05T13:50:58.902Z,95772.34
2017-12-05T13:53:26.474Z,95778.02
2017-12-05T13:55:55.460Z,95766.85
2017-12-05T13:58:23.004Z,95784.87
2017-12-05T14:00:50.465Z,95778.22
2017-12-05T14:03:18.139Z,95773.67
2017-12-05T14:05:45.925Z,95771.20
2017-12-05T14:08:13.494Z,95779.58
2017-12-05T14:10:41.208Z,95785.93
2017-12-05T14:13:08.709Z,95787.30
2017-12-05T14:15:36.137Z,95795.63
2017-12-05T14:18:03.596Z,95801.44
2017-12-05T14:20:31.105Z,95788.34
2017-12-05T14:22:58.618Z,95801.39
2017-12-05T14:25:26.174Z,95798.42
2017-12-05T14:27:53.807Z,95784.78
2017-12-05T14:30:21.271Z,95802.25
2017-12-05T14:32:49.333Z,95802.41
2017-12-05T14:35:17.328Z,95797.91
2017-12-05T14:37:45.182Z,95813.58
2017-12-05T14:40:12.631Z,95812.53
2017-12-05T14:42:40.518Z,95810.97
2017-12-05T14:45:08.051Z,95815.92
2017-12-05T14:47:35.506Z,95822.52
2017-12-05T14:50:03.112Z,95815.45
2017-12-05T14:52:30.674Z,95811.62
2017-12-05T14:54:58.393Z,95817.52
2017-12-05T14:57:25.930Z,95822.81
2017-12-05T14:59:53.316Z,95816.34
2017-12-05T15:02:20.702Z,95827.77
2017-12-05T15:04:48.199Z,95832.70
2017-12-05T15:07:15.603Z,95830.20
2017-12-05T15:09:43.039Z,95824.80
2017-12-05T15:12:10.431Z,95829.94
2017-12-05T15:14:37.968Z,95823.06
2017-12-05T15:17:05.815Z,95809.97
2017-12-05T15:19:33.476Z,95823.11
2017-12-05T15:22:01.182Z,95827.27
2017-12-05T15:24:28.640Z,95822.80
2017-12-05T15:26:56.143Z,95831.50
2017-12-05T15:29:23.598Z,95830.01
2017-12-05T15:31:51.043Z,95838.20
2017-12-05T15:34:18.517Z,95841.05
2017-12-05T15:36:45.903Z,95846.37
2017-12-05T15:39:13.350Z,95842.30
2017-12-05T15:41:40.862Z,95845.35
2017-12-05T15:44:08.316Z,95847.20
2017-12-05T15:46:35.820Z,95851.02
2017-12-05T15:49:03.489Z,95857.08
2017-12-05T15:51:30.870Z,95854.67
2017-12-05T15:53:58.324Z,95864.16
2017-12-05T15:56:25.883Z,95869.09
2017-12-05T15:58:53.283Z,95877.50
2017-12-05T16:01:20.983Z,95877.89
2017-12-05T16:03:48.377Z,95875.97
2017-12-05T16:06:15.778Z,95876.36
2017-12-05T16:08:43.368Z,95874.68
2017-12-05T16:11:10.755Z,95878.25
2017-12-05T16:13:38.194Z,95876.01
2017-12-05T16:16:05.615Z,95879.97
2017-12-05T16:18:32.971Z,95881.89
2017-12-05T16:21:00.349Z,95878.67
2017-12-05T16:23:28.050Z,95875.88
2017-12-05T16:25:55.478Z,95888.58
2017-12-05T16:28:22.858Z,95894.84
2017-12-05T16:30:50.223Z,95890.65
2017-12-05T16:33:17.653Z,95890.12
2017-12-05T16:35:45.121Z,95886.87
2017-12-05T16:38:12.515Z,95882.11
2017-12-05T16:40:39.987Z,95884.98
2017-12-05T16:43:07.367Z,95891.06
2017-12-05T16:45:34.777Z,95890.67
2017-12-05T16:48:02.246Z,95893.16
2017-12-05T16:50:29.578Z,95878.59
2017-12-05T16:52:56.987Z,95892.42
2017-12-05T16:55:24.335Z,95901.34
2017-12-05T16:57:51.697Z,95912.02
2017-12-05T17:00:19.116Z,95907.25
2017-12-05T17:02:46.486Z,95916.95
2017-12-05T17:05:13.865Z,95915.23
2017-12-05T17:07:41.259Z,95915.81
2017-12-05T17:10:08.655Z,95927.20
2017-12-05T17:12:36.058Z,95935.58
2017-12-05T17:15:03.447Z,95937.47
2017-12-05T17:17:30.810Z,95935.38
2017-12-05T17:19:58.220Z,95941.66
2017-12-05T17:22:25.615Z,95939.56
2017-12-05T17:24:52.971Z,95942.80
2017-12-05T17:27:20.317Z,95943.75
2017-12-05T17:29:47.851Z,95944.33
2017-12-05T17:32:15.222Z,95948.52
2017-12-05T17:34:42.755Z,95945.47
2017-12-05T17:37:10.123Z,95939.58
2017-12-05T17:39:37.594Z,95947.75
2017-12-05T17:42:05.043Z,95960.86
2017-12-05T17:44:32.456Z,95958.19
2017-12-05T17:46:59.850Z,95961.02
2017-12-05T17:49:27.290Z,95957.59
2017-12-05T17:51:54.701Z,95955.91
2017-12-05T17:54:22.058Z,95956.64
2017-12-05T17:56:49.436Z,95954.57
2017-12-05T17:59:16.814Z,95966.33
2017-12-05T18:01:44.194Z,95966.72
2017-12-05T18:04:11.638Z,95965.95
2017-12-05T18:06:39.072Z,95964.06
2017-12-05T18:09:06.412Z,95967.47
2017-12-05T18:11:33.851Z,95966.15
2017-12-05T18:14:01.280Z,95970.88
2017-12-05T18:16:28.824Z,95966.52
2017-12-05T18:18:56.204Z,95963.48
2017-12-05T18:21:23.704Z,95972.41
2017-12-05T18:23:51.112Z,95977.34
2017-12-05T18:26:18.614Z,95976.95
2017-12-05T18:28:46.001Z,95982.45
2017-12-05T18:31:13.491Z,95980.94
2017-12-05T18:33:40.875Z,95978.28
2017-12-05T18:36:08.366Z,95988.17
2017-12-05T18:38:35.719Z,95987.02
2017-12-05T18:41:03.059Z,95991.01
2017-12-05T18:43:30.439Z,95994.81
2017-12-05T18:45:57.854Z,95994.81
2017-12-05T18:48:25.292Z,95993.86
2017-12-05T18:50:52.635Z,95996.52
2017-12-05T18:53:20.062Z,95992.91
2017-12-05T18:55:47.414Z,95990.64
2017-12-05T18:58:14.816Z,95993.66
2017-12-05T19:00:42.166Z,95988.35
2017-12-05T19:03:09.557Z,96000.69
2017-12-05T19:05:36.975Z,96001.24
2017-12-05T19:08:04.330Z,96004.47
2017-12-05T19:10:31.747Z,96012.64
2017-12-05T19:12:59.182Z,96013.58
2017-12-05T19:15:26.701Z,96010.72
2017-12-05T19:17:54.187Z,96016.81
2017-12-05T19:20:21.567Z,96019.08
2017-12-05T19:22:49.015Z,96024.77
2017-12-05T19:25:16.411Z,96026.66
2017-12-05T19:27:43.798Z,96024.95
2017-12-05T19:30:11.206Z,96030.08
2017-12-05T19:32:38.645Z,96026.45
2017-12-05T19:35:06.035Z,96028.73
2017-12-05T19:37:33.427Z,96030.08
2017-12-05T19:40:00.838Z,96027.23
2017-12-05T19:42:28.236Z,96031.96
2017-12-05T19:44:55.644Z,96031.95
2017-12-05T19:47:23.017Z,96026.64
2017-12-05T19:49:50.531Z,96027.98
2017-12-05T19:52:17.987Z,96032.34
2017-12-05T19:54:45.389Z,96037.06
2017-12-05T19:57:12.795Z,96036.09
2017-12-05T19:59:40.214Z,96034.57
2017-12-05T20:02:07.622Z,96033.27
2017-12-05T20:04:35.077Z,96034.53
2017-12-05T20:07:02.478Z,96035.79
2017-12-05T20:09:29.831Z,96039.19
2017-12-05T20:11:57.203Z,96037.66
2017-12-05T20:14:24.583Z,96033.08
2017-12-05T20:16:52.194Z,96034.20
2017-12-05T20:19:19.594Z,96035.55
2017-12-05T20:21:47.004Z,96038.53
2017-12-05T20:24:14.406Z,96035.49
2017-12-05T20:26:41.799Z,96034.55
2017-12-05T20:29:09.207Z,96028.48
2017-12-05T20:31:36.690Z,96032.80
2017-12-05T20:34:04.042Z,96027.63
2017-12-05T20:36:31.520Z,96033.16
2017-12-05T20:38:58.905Z,96039.78
2017-12-05T20:41:26.304Z,96034.07
2017-12-05T20:43:53.726Z,96037.28
2017-12-05T20:46:21.157Z,96037.25
2017-12-05T20:48:48.518Z,96044.43
2017-12-05T20:51:15.922Z,96036.44
2017-12-05T20:53:43.374Z,96037.95
2017-12-05T20:56:10.778Z,96042.72
2017-12-05T20:58:38.153Z,96045.48
2017-12-05T21:01:05.560Z,96048.12
2017-12-05T21:03:32.985Z,96040.77
2017-12-05T21:06:00.377Z,96049.62
2017-12-05T21:08:27.743Z,96050.75
2017-12-05T21:10:55.152Z,96048.77
2017-12-05T21:13:22.552Z,96048.34
2017-12-05T21:15:49.919Z,96054.45
2017-12-05T21:18:17.284Z,96052.74
2017-12-05T21:20:44.689Z,96052.88
2017-12-05T21:23:12.079Z,96056.66
2017-12-05T21:25:39.480Z,96055.73
2017-12-05T21:28:06.896Z,96055.51
2017-12-05T21:30:34.307Z,96057.73
2017-12-05T21:33:01.745Z,96055.46
2017-12-05T21:35:29.162Z,96056.17
2017-12-05T21:37:56.574Z,96053.42
2017-12-05T21:40:23.909Z,96055.47
2017-12-05T21:42:51.261Z,96055.40
2017-12-05T21:45:18.642Z,96061.68
2017-12-05T21:47:46.029Z,96056.58
2017-12-05T21:50:13.481Z,96059.05
2017-12-05T21:52:40.884Z,96058.98
2017-12-05T21:55:08.227Z,96055.17
2017-12-05T21:57:35.608Z,96055.75
2017-12-05T22:00:02.960Z,96051.57
2017-12-05T22:02:30.361Z,96055.67
2017-12-05T22:04:57.745Z,96061.19
2017-12-05T22:07:25.082Z,96062.49
2017-12-05T22:09:52.507Z,96058.86
2017-12-05T22:12:19.886Z,96064.67
2017-12-05T22:14:47.334Z,96053.50
2017-12-05T22:17:14.740Z,96050.44
2017-12-05T22:19:42.087Z,96055.67
2017-12-05T22:22:09.494Z,96043.67
2017-12-05T22:24:36.831Z,96040.02
2017-12-05T22:27:04.303Z,96038.36
2017-12-05T22:29:31.752Z,96031.67
2017-12-05T22:31:59.187Z,96038.13
2017-12-05T22:34:26.527Z,96033.12
2017-12-05T22:36:53.896Z,96040.73
2017-12-05T22:39:21.289Z,96038.86
2017-12-05T22:41:48.731Z,96039.98
2017-12-05T22:44:16.191Z,96044.70
2017-12-05T22:46:43.540Z,96042.75
2017-12-05T22:49:10.928Z,96043.13
2017-12-05T22:51:38.278Z,96042.64
2017-12-05T22:54:05.614Z,96046.16
2017-12-05T22:56:32.995Z,96050.88
2017-12-05T22:59:00.331Z,96045.61
2017-12-05T23:01:27.799Z,96049.00
2017-12-05T23:03:55.184Z,96049.34
2017-12-05T23:06:22.522Z,96037.02
2017-12-05T23:08:49.924Z,96043.23
2017-12-05T23:11:17.320Z,96043.83
2017-12-05T23:13:44.697Z,96029.24
2017-12-05T23:16:12.188Z,96030.14
2017-12-05T23:18:39.573Z,96028.96
2017-12-05T23:21:06.915Z,96035.79
2017-12-05T23:23:34.287Z,96030.57
2017-12-05T23:26:01.619Z,96029.99
2017-12-05T23:28:29.004Z,96024.23
2017-12-05T23:30:56.378Z,96022.70
2017-12-05T23:33:23.782Z,96014.54
2017-12-05T23:35:51.138Z,96023.88
2017-12-05T23:38:18.517Z,96009.74
2017-12-05T23:40:45.874Z,96014.02
2017-12-05T23:43:13.267Z,96018.72
2017-12-05T23:45:40.642Z,96011.52
2017-12-05T23:48:07.994Z,96006.28
2017-12-05T23:50:35.983Z,96012.59
2017-12-05T23:53:03.319Z,96009.38
2017-12-05T23:55:30.699Z,96015.60
2017-12-05T23:57:58.074Z,96009.23
